Time,TemperatureF,DewpointF,PressureIn,WindDirection,WindDirectionDegrees,WindSpeedMPH,WindSpeedGustMPH,Humidity,HourlyPrecipIn,Conditions,Clouds,dailyrainin,SoftwareType,DateUTC
2013-03-09 00:00:00,49.2,47.0,30.19,East,86,0.0,0.0,92,0.00,,CLR,0.00,VWS V14.01,2013-03-09 05:00:00,
2013-03-09 00:01:00,49.2,47.0,30.19,East,86,0.0,0.0,92,0.00,,CLR,0.00,VWS V14.01,2013-03-09 05:01:00,
2013-03-09 00:07:00,49.1,46.9,30.19,East,86,0.0,0.0,92,0.00,,CLR,0.00,VWS V14.01,2013-03-09 05:07:00,
2013-03-09 00:12:00,49.0,46.8,30.19,East,86,0.0,0.0,92,0.00,,CLR,0.00,VWS V14.01,2013-03-09 05:12:00,
2013-03-09 00:17:00,48.9,46.7,30.19,East,86,0.0,0.0,92,0.00,,CLR,0.00,VWS V14.01,2013-03-09 05:17:00,
2013-03-09 00:22:00,48.8,46.6,30.19,East,86,0.0,0.0,92,0.00,,CLR,0.00,VWS V14.01,2013-03-09 05:22:00,
2013-03-09 00:27:00,48.6,46.4,30.18,East,86,0.0,0.0,92,0.00,,CLR,0.00,VWS V14.01,2013-03-09 05:27:00,
2013-03-09 00:32:00,48.4,46.2,30.19,East,86,0.0,0.0,92,0.00,,CLR,0.00,VWS V14.01,2013-03-09 05:32:00,
2013-03-09 00:37:00,48.2,46.0,30.18,East,86,0.0,0.0,92,0.00,,CLR,0.00,VWS V14.01,2013-03-09 05:37:00,
2013-03-09 00:43:00,48.1,46.2,30.19,East,86,0.0,0.0,93,0.00,,CLR,0.00,VWS V14.01,2013-03-09 05:43:00,
2013-03-09 00:48:00,47.9,46.0,30.18,East,86,0.0,0.0,93,0.00,,CLR,0.00,VWS V14.01,2013-03-09 05:48:00,
2013-03-09 00:53:00,47.8,45.9,30.18,East,86,0.0,0.0,93,0.00,,CLR,0.00,VWS V14.01,2013-03-09 05:53:00,
2013-03-09 00:58:00,47.7,46.1,30.18,East,86,0.0,0.0,94,0.00,,CLR,0.00,VWS V14.01,2013-03-09 05:58:00,
2013-03-09 01:03:00,47.8,46.2,30.19,East,86,0.0,0.0,94,0.00,,CLR,0.00,VWS V14.01,2013-03-09 06:03:00,
2013-03-09 01:08:00,47.9,46.3,30.18,East,86,0.0,0.0,94,0.00,,CLR,0.00,VWS V14.01,2013-03-09 06:08:00,
2013-03-09 01:13:00,47.9,46.3,30.18,East,86,0.0,0.0,94,0.00,,CLR,0.00,VWS V14.01,2013-03-09 06:13:00,
2013-03-09 01:18:00,47.9,46.3,30.18,East,86,0.0,0.0,94,0.00,,CLR,0.00,VWS V14.01,2013-03-09 06:18:00,
2013-03-09 01:23:00,48.0,46.6,30.18,East,86,0.0,0.0,95,0.00,,CLR,0.00,VWS V14.01,2013-03-09 06:23:00,
2013-03-09 01:28:00,47.9,46.3,30.17,East,86,0.0,0.0,94,0.00,,CLR,0.00,VWS V14.01,2013-03-09 06:28:00,
2013-03-09 01:33:00,47.8,46.4,30.17,East,86,0.0,0.0,95,0.00,,CLR,0.00,VWS V14.01,2013-03-09 06:33:00,
2013-03-09 01:39:00,47.7,46.3,30.17,East,86,0.0,0.0,95,0.00,,CLR,0.00,VWS V14.01,2013-03-09 06:39:00,
2013-03-09 01:44:00,47.7,46.3,30.17,East,86,0.0,0.0,95,0.00,,CLR,0.00,VWS V14.01,2013-03-09 06:44:00,
2013-03-09 01:49:00,47.7,46.3,30.16,East,86,0.0,0.0,95,0.00,,CLR,0.00,VWS V14.01,2013-03-09 06:49:00,
2013-03-09 01:54:00,47.7,46.3,30.16,East,86,0.0,0.0,95,0.00,,CLR,0.00,VWS V14.01,2013-03-09 06:54:00,
2013-03-09 01:59:00,47.6,46.2,30.16,East,86,0.0,0.0,95,0.00,,CLR,0.00,VWS V14.01,2013-03-09 06:59:00,
2013-03-09 02:04:00,47.5,46.1,30.16,East,86,0.0,0.0,95,0.00,,CLR,0.00,VWS V14.01,2013-03-09 07:04:00,
2013-03-09 02:09:00,47.4,46.0,30.15,East,86,0.0,0.0,95,0.00,,CLR,0.00,VWS V14.01,2013-03-09 07:09:00,
2013-03-09 02:14:00,47.2,45.8,30.15,East,86,0.0,0.0,95,0.00,,CLR,0.00,VWS V14.01,2013-03-09 07:14:00,
2013-03-09 02:19:00,47.2,45.8,30.15,East,86,0.0,0.0,95,0.00,,CLR,0.00,VWS V14.01,2013-03-09 07:19:00,
2013-03-09 02:24:00,47.1,45.7,30.16,East,86,0.0,0.0,95,0.00,,CLR,0.00,VWS V14.01,2013-03-09 07:24:00,
2013-03-09 02:29:00,46.9,45.5,30.16,East,86,0.0,0.0,95,0.00,,CLR,0.00,VWS V14.01,2013-03-09 07:29:00,
2013-03-09 02:35:00,46.9,45.5,30.16,East,86,0.0,0.0,95,0.00,,CLR,0.00,VWS V14.01,2013-03-09 07:35:00,
2013-03-09 02:40:00,47.1,46.0,30.16,East,86,0.0,0.0,96,0.00,,CLR,0.00,VWS V14.01,2013-03-09 07:40:00,
2013-03-09 02:45:00,47.3,46.2,30.16,East,86,0.0,0.0,96,0.00,,CLR,0.00,VWS V14.01,2013-03-09 07:45:00,
2013-03-09 02:50:00,47.2,46.1,30.16,East,86,0.0,0.0,96,0.00,,CLR,0.00,VWS V14.01,2013-03-09 07:50:00,
2013-03-09 02:55:00,47.0,45.7,30.16,East,86,0.0,0.0,95,0.00,,CLR,0.00,VWS V14.01,2013-03-09 07:55:00,
2013-03-09 03:00:00,46.8,45.7,30.15,East,86,0.0,0.0,96,0.00,,CLR,0.00,VWS V14.01,2013-03-09 08:00:00,
2013-03-09 03:05:00,46.7,45.6,30.15,East,86,0.0,0.0,96,0.00,,CLR,0.00,VWS V14.01,2013-03-09 08:05:00,
2013-03-09 03:10:00,46.5,45.4,30.15,East,86,0.0,0.0,96,0.00,,CLR,0.00,VWS V14.01,2013-03-09 08:10:00,
2013-03-09 03:16:00,46.2,44.8,30.14,East,86,0.0,0.0,95,0.00,,CLR,0.00,VWS V14.01,2013-03-09 08:16:00,
2013-03-09 03:21:00,46.1,45.0,30.14,East,86,0.0,0.0,96,0.00,,CLR,0.00,VWS V14.01,2013-03-09 08:21:00,
2013-03-09 03:26:00,45.9,44.8,30.14,East,86,0.0,0.0,96,0.00,,CLR,0.00,VWS V14.01,2013-03-09 08:26:00,
2013-03-09 03:31:00,45.9,44.8,30.14,East,86,0.0,0.0,96,0.00,,CLR,0.00,VWS V14.01,2013-03-09 08:31:00,
2013-03-09 03:36:00,45.8,44.7,30.14,East,86,0.0,0.0,96,0.00,,CLR,0.00,VWS V14.01,2013-03-09 08:36:00,
2013-03-09 03:41:00,45.6,44.5,30.14,East,86,0.0,0.0,96,0.00,,CLR,0.00,VWS V14.01,2013-03-09 08:41:00,
2013-03-09 03:46:00,45.5,44.4,30.14,East,86,0.0,0.0,96,0.00,,CLR,0.00,VWS V14.01,2013-03-09 08:46:00,
2013-03-09 03:51:00,45.6,44.5,30.14,East,86,0.0,0.0,96,0.00,,CLR,0.00,VWS V14.01,2013-03-09 08:51:00,
2013-03-09 03:56:00,45.9,44.8,30.13,East,86,0.0,0.0,96,0.00,,CLR,0.00,VWS V14.01,2013-03-09 08:56:00,
2013-03-09 04:01:00,46.0,44.9,30.13,East,86,0.0,0.0,96,0.00,,CLR,0.00,VWS V14.01,2013-03-09 09:01:00,
2013-03-09 04:07:00,46.1,45.0,30.14,East,86,0.0,0.0,96,0.00,,CLR,0.00,VWS V14.01,2013-03-09 09:07:00,
2013-03-09 04:12:00,46.2,45.4,30.14,East,86,0.0,0.0,97,0.00,,CLR,0.00,VWS V14.01,2013-03-09 09:12:00,
2013-03-09 04:17:00,46.3,45.5,30.13,East,86,0.0,0.0,97,0.00,,CLR,0.00,VWS V14.01,2013-03-09 09:17:00,
2013-03-09 04:22:00,46.5,45.7,30.14,East,86,0.0,0.0,97,0.00,,CLR,0.00,VWS V14.01,2013-03-09 09:22:00,
2013-03-09 04:27:00,46.7,45.9,30.14,East,86,0.0,0.0,97,0.00,,CLR,0.00,VWS V14.01,2013-03-09 09:27:00,
2013-03-09 04:32:00,46.7,45.9,30.14,East,86,0.0,0.0,97,0.00,,CLR,0.00,VWS V14.01,2013-03-09 09:32:00,
2013-03-09 04:37:00,46.6,45.8,30.15,East,86,0.0,0.0,97,0.00,,CLR,0.00,VWS V14.01,2013-03-09 09:37:00,
2013-03-09 04:42:00,46.6,45.8,30.15,East,86,0.0,0.0,97,0.00,,CLR,0.00,VWS V14.01,2013-03-09 09:42:00,
2013-03-09 04:47:00,46.6,45.8,30.15,East,86,0.0,0.0,97,0.00,,CLR,0.00,VWS V14.01,2013-03-09 09:47:00,
2013-03-09 04:52:00,46.5,45.7,30.15,East,86,0.0,0.0,97,0.00,,CLR,0.00,VWS V14.01,2013-03-09 09:52:00,
2013-03-09 04:57:00,46.5,45.7,30.15,East,86,0.0,0.0,97,0.00,,CLR,0.00,VWS V14.01,2013-03-09 09:57:00,
2013-03-09 05:03:00,46.5,45.7,30.15,East,86,0.0,0.0,97,0.00,,CLR,0.00,VWS V14.01,2013-03-09 10:03:00,
2013-03-09 05:08:00,46.4,45.6,30.15,East,86,0.0,0.0,97,0.00,,CLR,0.00,VWS V14.01,2013-03-09 10:08:00,
2013-03-09 05:13:00,46.4,45.6,30.15,East,86,0.0,0.0,97,0.00,,CLR,0.00,VWS V14.01,2013-03-09 10:13:00,
2013-03-09 05:18:00,46.3,45.5,30.16,East,86,0.0,0.0,97,0.00,,CLR,0.00,VWS V14.01,2013-03-09 10:18:00,
2013-03-09 05:23:00,46.1,45.3,30.16,East,86,0.0,0.0,97,0.00,,CLR,0.00,VWS V14.01,2013-03-09 10:23:00,
2013-03-09 05:28:00,46.1,45.3,30.16,East,86,0.0,0.0,97,0.00,,CLR,0.00,VWS V14.01,2013-03-09 10:28:00,
2013-03-09 05:33:00,46.1,45.3,30.16,East,86,0.0,0.0,97,0.00,,CLR,0.00,VWS V14.01,2013-03-09 10:33:00,
2013-03-09 05:38:00,46.0,45.2,30.16,East,86,0.0,0.0,97,0.00,,CLR,0.00,VWS V14.01,2013-03-09 10:38:00,
2013-03-09 05:43:00,46.0,45.2,30.16,East,86,0.0,0.0,97,0.00,,CLR,0.00,VWS V14.01,2013-03-09 10:43:00,
2013-03-09 05:48:00,46.0,45.2,30.16,East,86,0.0,0.0,97,0.00,,CLR,0.00,VWS V14.01,2013-03-09 10:48:00,
2013-03-09 05:54:00,46.0,45.2,30.16,East,86,0.0,0.0,97,0.00,,CLR,0.00,VWS V14.01,2013-03-09 10:54:00,
2013-03-09 05:59:00,46.0,45.2,30.16,East,86,0.0,0.0,97,0.00,,CLR,0.00,VWS V14.01,2013-03-09 10:59:00,
2013-03-09 06:04:00,45.9,45.1,30.16,East,86,0.0,0.0,97,0.00,,CLR,0.00,VWS V14.01,2013-03-09 11:04:00,
2013-03-09 06:09:00,45.7,44.9,30.16,East,86,0.0,0.0,97,0.00,,CLR,0.00,VWS V14.01,2013-03-09 11:09:00,
2013-03-09 06:14:00,45.5,44.7,30.16,East,86,0.0,0.0,97,0.00,,CLR,0.00,VWS V14.01,2013-03-09 11:14:00,
2013-03-09 06:19:00,45.3,44.5,30.16,East,86,0.0,0.0,97,0.00,,CLR,0.00,VWS V14.01,2013-03-09 11:19:00,
2013-03-09 06:24:00,45.1,44.3,30.17,East,86,0.0,0.0,97,0.00,,CLR,0.00,VWS V14.01,2013-03-09 11:24:00,
2013-03-09 06:29:00,45.1,44.3,30.17,East,86,0.0,0.0,97,0.00,,CLR,0.00,VWS V14.01,2013-03-09 11:29:00,
2013-03-09 06:34:00,45.1,44.3,30.17,East,86,0.0,0.0,97,0.00,,CLR,0.00,VWS V14.01,2013-03-09 11:34:00,
2013-03-09 06:39:00,45.2,44.4,30.17,East,86,0.0,0.0,97,0.00,,CLR,0.00,VWS V14.01,2013-03-09 11:39:00,
2013-03-09 06:45:00,45.2,44.4,30.17,East,86,0.0,0.0,97,0.00,,CLR,0.00,VWS V14.01,2013-03-09 11:45:00,
2013-03-09 06:50:00,45.3,44.5,30.18,East,86,0.0,0.0,97,0.00,,CLR,0.00,VWS V14.01,2013-03-09 11:50:00,
2013-03-09 06:55:00,45.3,44.5,30.18,East,86,0.0,0.0,97,0.00,,CLR,0.00,VWS V14.01,2013-03-09 11:55:00,
2013-03-09 07:00:00,45.4,44.6,30.18,East,86,0.0,0.0,97,0.00,,CLR,0.00,VWS V14.01,2013-03-09 12:00:00,
2013-03-09 07:05:00,45.6,44.8,30.18,East,86,0.0,0.0,97,0.00,,CLR,0.00,VWS V14.01,2013-03-09 12:05:00,
2013-03-09 07:10:00,45.8,45.0,30.18,East,86,0.0,0.0,97,0.00,,CLR,0.00,VWS V14.01,2013-03-09 12:10:00,
2013-03-09 07:15:00,45.9,45.1,30.18,East,86,0.0,0.0,97,0.00,,CLR,0.00,VWS V14.01,2013-03-09 12:15:00,
2013-03-09 07:20:00,46.2,45.4,30.18,East,86,0.0,0.0,97,0.00,,CLR,0.00,VWS V14.01,2013-03-09 12:20:00,
2013-03-09 07:25:00,46.5,45.7,30.18,East,86,0.0,0.0,97,0.00,,CLR,0.00,VWS V14.01,2013-03-09 12:25:00,
2013-03-09 07:31:00,46.8,46.0,30.18,East,86,0.0,0.0,97,0.00,,CLR,0.00,VWS V14.01,2013-03-09 12:31:00,
2013-03-09 07:36:00,47.1,46.3,30.18,East,86,0.0,0.0,97,0.00,,CLR,0.00,VWS V14.01,2013-03-09 12:36:00,
2013-03-09 07:41:00,47.4,46.6,30.19,East,86,0.0,0.0,97,0.00,,CLR,0.00,VWS V14.01,2013-03-09 12:41:00,
2013-03-09 07:46:00,47.7,47.2,30.18,East,86,0.0,0.0,98,0.00,,CLR,0.00,VWS V14.01,2013-03-09 12:46:00,
2013-03-09 07:51:00,48.1,47.6,30.18,East,86,0.0,1.0,98,0.00,,CLR,0.00,VWS V14.01,2013-03-09 12:51:00,
2013-03-09 07:56:00,48.5,48.0,30.19,East,86,0.0,1.0,98,0.00,,CLR,0.00,VWS V14.01,2013-03-09 12:56:00,
2013-03-09 08:01:00,49.0,48.5,30.19,East,86,0.0,1.0,98,0.00,,CLR,0.00,VWS V14.01,2013-03-09 13:01:00,
2013-03-09 08:06:00,49.4,48.6,30.19,East,86,0.0,0.0,97,0.00,,CLR,0.00,VWS V14.01,2013-03-09 13:06:00,
2013-03-09 08:11:00,49.9,49.1,30.19,East,86,0.0,0.0,97,0.00,,CLR,0.00,VWS V14.01,2013-03-09 13:11:00,
2013-03-09 08:16:00,50.6,49.5,30.20,East,86,0.0,0.0,96,0.00,,CLR,0.00,VWS V14.01,2013-03-09 13:16:00,
2013-03-09 08:21:00,51.8,50.1,30.20,East,84,0.0,0.0,94,0.00,,CLR,0.00,VWS V14.01,2013-03-09 13:21:00,
2013-03-09 08:27:00,53.2,50.7,30.20,East,84,0.0,0.0,91,0.00,,CLR,0.00,VWS V14.01,2013-03-09 13:27:00,
2013-03-09 08:32:00,54.4,50.6,30.20,WNW,290,0.0,1.0,87,0.00,,CLR,0.00,VWS V14.01,2013-03-09 13:32:00,
2013-03-09 08:37:00,55.4,50.7,30.20,WNW,290,0.0,0.0,84,0.00,,CLR,0.00,VWS V14.01,2013-03-09 13:37:00,
2013-03-09 08:42:00,56.5,50.8,30.20,WNW,293,0.0,1.0,81,0.00,,CLR,0.00,VWS V14.01,2013-03-09 13:42:00,
2013-03-09 08:47:00,57.3,50.5,30.21,ENE,58,0.0,1.0,78,0.00,,CLR,0.00,VWS V14.01,2013-03-09 13:47:00,
2013-03-09 08:52:00,58.1,50.9,30.20,ENE,58,0.0,1.0,77,0.00,,CLR,0.00,VWS V14.01,2013-03-09 13:52:00,
2013-03-09 08:57:00,59.0,51.1,30.20,ENE,58,0.0,1.0,75,0.00,,CLR,0.00,VWS V14.01,2013-03-09 13:57:00,
2013-03-09 09:02:00,59.7,50.7,30.21,NE,47,0.0,1.0,72,0.00,,CLR,0.00,VWS V14.01,2013-03-09 14:02:00,
2013-03-09 09:07:00,60.5,51.1,30.21,NE,42,0.0,1.0,71,0.00,,CLR,0.00,VWS V14.01,2013-03-09 14:07:00,
2013-03-09 09:12:00,61.3,51.1,30.20,ENE,65,0.0,1.0,69,0.00,,CLR,0.00,VWS V14.01,2013-03-09 14:12:00,
2013-03-09 09:18:00,62.0,51.7,30.21,NNE,32,0.0,1.0,69,0.00,,CLR,0.00,VWS V14.01,2013-03-09 14:18:00,
2013-03-09 09:23:00,62.7,52.0,30.20,West,269,0.0,2.0,68,0.00,,CLR,0.00,VWS V14.01,2013-03-09 14:23:00,
2013-03-09 09:28:00,63.6,52.5,30.21,NNE,32,0.0,2.0,67,0.00,,CLR,0.00,VWS V14.01,2013-03-09 14:28:00,
2013-03-09 09:33:00,64.6,52.6,30.21,WNW,288,0.0,2.0,65,0.00,,CLR,0.00,VWS V14.01,2013-03-09 14:33:00,
2013-03-09 09:38:00,65.4,52.5,30.21,NNE,28,0.0,3.0,63,0.00,,CLR,0.00,VWS V14.01,2013-03-09 14:38:00,
2013-03-09 09:43:00,66.0,52.6,30.21,ENE,65,0.0,3.0,62,0.00,,CLR,0.00,VWS V14.01,2013-03-09 14:43:00,
2013-03-09 09:48:00,66.5,53.5,30.21,North,358,0.0,3.0,63,0.00,,CLR,0.00,VWS V14.01,2013-03-09 14:48:00,
2013-03-09 09:53:00,66.9,53.0,30.21,WNW,285,1.0,3.0,61,0.00,,CLR,0.00,VWS V14.01,2013-03-09 14:53:00,
2013-03-09 09:58:00,67.4,53.9,30.21,ESE,110,0.0,4.0,62,0.00,,CLR,0.00,VWS V14.01,2013-03-09 14:58:00,
2013-03-09 10:03:00,68.1,53.7,30.21,SW,224,0.0,5.0,60,0.00,,CLR,0.00,VWS V14.01,2013-03-09 15:03:00,
2013-03-09 10:09:00,68.7,54.7,30.21,NE,44,0.0,3.0,61,0.00,,CLR,0.00,VWS V14.01,2013-03-09 15:09:00,
2013-03-09 10:14:00,69.1,53.7,30.22,West,270,0.0,4.0,58,0.00,,CLR,0.00,VWS V14.01,2013-03-09 15:14:00,
2013-03-09 10:19:00,69.5,54.6,30.21,SE,132,0.0,4.0,59,0.00,,CLR,0.00,VWS V14.01,2013-03-09 15:19:00,
2013-03-09 10:24:00,70.3,53.9,30.21,WNW,294,1.0,4.0,56,0.00,,CLR,0.00,VWS V14.01,2013-03-09 15:24:00,
2013-03-09 10:29:00,70.5,53.6,30.21,East,89,0.0,4.0,55,0.00,,CLR,0.00,VWS V14.01,2013-03-09 15:29:00,
2013-03-09 10:34:00,70.3,54.8,30.21,West,271,0.0,0.0,58,0.00,,CLR,0.00,VWS V14.01,2013-03-09 15:34:00,
2013-03-09 10:39:00,70.6,54.6,30.22,ESE,111,1.0,2.0,57,0.00,,CLR,0.00,VWS V14.01,2013-03-09 15:39:00,
2013-03-09 10:44:00,71.0,54.5,30.22,WSW,238,1.0,3.0,56,0.00,,CLR,0.00,VWS V14.01,2013-03-09 15:44:00,
2013-03-09 10:50:00,71.0,54.5,30.22,East,81,0.0,3.0,56,0.00,,CLR,0.00,VWS V14.01,2013-03-09 15:50:00,
2013-03-09 10:55:00,71.1,53.6,30.22,SSW,205,3.0,3.0,54,0.00,,CLR,0.00,VWS V14.01,2013-03-09 15:55:00,
2013-03-09 11:00:00,71.2,52.7,30.22,ESE,105,0.0,3.0,52,0.00,,CLR,0.00,VWS V14.01,2013-03-09 16:00:00,
2013-03-09 11:05:00,71.4,53.4,30.22,SSW,212,0.0,2.0,53,0.00,,CLR,0.00,VWS V14.01,2013-03-09 16:05:00,
2013-03-09 11:10:00,71.8,52.7,30.22,SSW,208,2.0,2.0,51,0.00,,CLR,0.00,VWS V14.01,2013-03-09 16:10:00,
2013-03-09 11:15:00,71.9,51.2,30.22,SSW,212,0.0,3.0,48,0.00,,CLR,0.00,VWS V14.01,2013-03-09 16:15:00,
2013-03-09 11:20:00,72.4,52.7,30.22,SSE,150,1.0,4.0,50,0.00,,CLR,0.00,VWS V14.01,2013-03-09 16:20:00,
2013-03-09 11:25:00,73.2,55.1,30.22,North,8,0.0,4.0,53,0.00,,CLR,0.00,VWS V14.01,2013-03-09 16:25:00,
2013-03-09 11:30:00,73.9,51.8,30.22,ESE,107,1.0,4.0,46,0.00,,CLR,0.00,VWS V14.01,2013-03-09 16:30:00,
2013-03-09 11:36:00,73.8,54.0,30.22,SE,142,0.0,1.0,50,0.00,,CLR,0.00,VWS V14.01,2013-03-09 16:36:00,
2013-03-09 11:41:00,73.7,51.7,30.21,South,186,0.0,5.0,46,0.00,,CLR,0.00,VWS V14.01,2013-03-09 16:41:00,
2013-03-09 11:46:00,73.6,52.7,30.21,SE,134,0.0,5.0,48,0.00,,CLR,0.00,VWS V14.01,2013-03-09 16:46:00,
2013-03-09 11:51:00,73.3,53.0,30.21,SSW,207,2.0,5.0,49,0.00,,CLR,0.00,VWS V14.01,2013-03-09 16:51:00,
2013-03-09 11:56:00,73.3,53.0,30.20,SE,132,0.0,5.0,49,0.00,,CLR,0.00,VWS V14.01,2013-03-09 16:56:00,
2013-03-09 12:01:00,73.8,52.3,30.20,SW,215,1.0,5.0,47,0.00,,CLR,0.00,VWS V14.01,2013-03-09 17:01:00,
2013-03-09 12:06:00,73.9,53.6,30.20,East,88,1.0,3.0,49,0.00,,CLR,0.00,VWS V14.01,2013-03-09 17:06:00,
2013-03-09 12:11:00,74.0,53.7,30.20,NE,55,1.0,3.0,49,0.00,,CLR,0.00,VWS V14.01,2013-03-09 17:11:00,
2013-03-09 12:17:00,75.0,52.2,30.19,WNW,297,3.0,3.0,45,0.00,,CLR,0.00,VWS V14.01,2013-03-09 17:17:00,
2013-03-09 12:22:00,74.5,52.4,30.19,ENE,64,0.0,3.0,46,0.00,,CLR,0.00,VWS V14.01,2013-03-09 17:22:00,
2013-03-09 12:27:00,74.5,51.8,30.19,SSW,213,0.0,3.0,45,0.00,,CLR,0.00,VWS V14.01,2013-03-09 17:27:00,
2013-03-09 12:32:00,74.7,52.6,30.18,WSW,245,0.0,4.0,46,0.00,,CLR,0.00,VWS V14.01,2013-03-09 17:32:00,
2013-03-09 12:37:00,74.6,53.6,30.19,WNW,296,0.0,2.0,48,0.00,,CLR,0.00,VWS V14.01,2013-03-09 17:37:00,
2013-03-09 12:42:00,75.1,52.3,30.19,SE,141,0.0,7.0,45,0.00,,CLR,0.00,VWS V14.01,2013-03-09 17:42:00,
2013-03-09 12:47:00,75.9,52.5,30.19,East,89,0.0,7.0,44,0.00,,CLR,0.00,VWS V14.01,2013-03-09 17:47:00,
2013-03-09 12:52:00,76.1,51.4,30.19,NNW,333,1.0,7.0,42,0.00,,CLR,0.00,VWS V14.01,2013-03-09 17:52:00,
2013-03-09 12:58:00,75.9,51.8,30.18,SSE,158,1.0,7.0,43,0.00,,CLR,0.00,VWS V14.01,2013-03-09 17:58:00,
2013-03-09 13:03:00,76.2,52.1,30.18,SSE,162,3.0,7.0,43,0.00,,CLR,0.00,VWS V14.01,2013-03-09 18:03:00,
2013-03-09 13:08:00,76.6,54.3,30.18,SSE,151,0.0,5.0,46,0.00,,CLR,0.00,VWS V14.01,2013-03-09 18:08:00,
2013-03-09 13:13:00,77.4,51.9,30.18,SSW,212,3.0,5.0,41,0.00,,CLR,0.00,VWS V14.01,2013-03-09 18:13:00,
2013-03-09 13:18:00,76.6,51.8,30.17,ESE,115,0.0,5.0,42,0.00,,CLR,0.00,VWS V14.01,2013-03-09 18:18:00,
2013-03-09 13:23:00,75.7,51.0,30.17,NNW,328,0.0,5.0,42,0.00,,CLR,0.00,VWS V14.01,2013-03-09 18:23:00,
2013-03-09 13:28:00,74.9,50.9,30.17,WNW,291,0.0,5.0,43,0.00,,CLR,0.00,VWS V14.01,2013-03-09 18:28:00,
2013-03-09 13:33:00,74.8,52.1,30.16,SE,132,0.0,5.0,45,0.00,,CLR,0.00,VWS V14.01,2013-03-09 18:33:00,
2013-03-09 13:38:00,75.5,52.1,30.16,SW,229,0.0,2.0,44,0.00,,CLR,0.00,VWS V14.01,2013-03-09 18:38:00,
2013-03-09 13:44:00,75.9,51.2,30.16,SW,235,0.0,3.0,42,0.00,,CLR,0.00,VWS V14.01,2013-03-09 18:44:00,
2013-03-09 13:49:00,75.6,52.2,30.16,East,88,0.0,3.0,44,0.00,,CLR,0.00,VWS V14.01,2013-03-09 18:49:00,
2013-03-09 13:54:00,76.1,54.4,30.15,ESE,113,1.0,4.0,47,0.00,,CLR,0.00,VWS V14.01,2013-03-09 18:54:00,
2013-03-09 13:59:00,76.4,52.9,30.16,ENE,78,1.0,4.0,44,0.00,,CLR,0.00,VWS V14.01,2013-03-09 18:59:00,
2013-03-09 14:04:00,76.0,53.2,30.16,SW,235,0.0,0.0,45,0.00,,CLR,0.00,VWS V14.01,2013-03-09 19:04:00,
2013-03-09 14:09:00,76.5,53.6,30.15,East,84,2.0,2.0,45,0.00,,CLR,0.00,VWS V14.01,2013-03-09 19:09:00,
2013-03-09 14:14:00,76.6,53.7,30.15,SE,126,0.0,5.0,45,0.00,,CLR,0.00,VWS V14.01,2013-03-09 19:14:00,
2013-03-09 14:20:00,76.9,54.0,30.15,WNW,302,2.0,5.0,45,0.00,,CLR,0.00,VWS V14.01,2013-03-09 19:20:00,
2013-03-09 14:25:00,76.8,53.9,30.15,NNE,12,0.0,5.0,45,0.00,,CLR,0.00,VWS V14.01,2013-03-09 19:25:00,
2013-03-09 14:30:00,76.6,53.1,30.15,West,265,1.0,6.0,44,0.00,,CLR,0.00,VWS V14.01,2013-03-09 19:30:00,
2013-03-09 14:35:00,76.7,54.4,30.15,SW,224,2.0,3.0,46,0.00,,CLR,0.00,VWS V14.01,2013-03-09 19:35:00,
2013-03-09 14:40:00,77.3,54.3,30.14,WNW,297,0.0,5.0,45,0.00,,CLR,0.00,VWS V14.01,2013-03-09 19:40:00,
2013-03-09 14:45:00,77.4,53.8,30.14,NE,54,0.0,5.0,44,0.00,,CLR,0.00,VWS V14.01,2013-03-09 19:45:00,
2013-03-09 14:50:00,77.7,54.1,30.15,WSW,257,0.0,5.0,44,0.00,,CLR,0.00,VWS V14.01,2013-03-09 19:50:00,
2013-03-09 14:55:00,77.1,53.5,30.14,East,99,0.0,5.0,44,0.00,,CLR,0.00,VWS V14.01,2013-03-09 19:55:00,
2013-03-09 15:00:00,76.4,53.5,30.14,SW,224,0.0,5.0,45,0.00,,CLR,0.00,VWS V14.01,2013-03-09 20:00:00,
2013-03-09 15:05:00,76.0,53.2,30.14,ESE,110,0.0,1.0,45,0.00,,CLR,0.00,VWS V14.01,2013-03-09 20:05:00,
2013-03-09 15:11:00,75.2,53.6,30.14,WSW,249,0.0,3.0,47,0.00,,CLR,0.00,VWS V14.01,2013-03-09 20:11:00,
2013-03-09 15:16:00,74.9,53.3,30.14,NE,44,0.0,3.0,47,0.00,,CLR,0.00,VWS V14.01,2013-03-09 20:16:00,
2013-03-09 15:21:00,74.6,53.1,30.14,NE,46,0.0,3.0,47,0.00,,CLR,0.00,VWS V14.01,2013-03-09 20:21:00,
2013-03-09 15:26:00,73.9,53.0,30.14,WSW,238,0.0,3.0,48,0.00,,CLR,0.00,VWS V14.01,2013-03-09 20:26:00,
2013-03-09 15:31:00,73.3,53.6,30.14,East,95,0.0,3.0,50,0.00,,CLR,0.00,VWS V14.01,2013-03-09 20:31:00,
2013-03-09 15:36:00,73.1,53.9,30.14,East,91,0.0,2.0,51,0.00,,CLR,0.00,VWS V14.01,2013-03-09 20:36:00,
2013-03-09 15:41:00,72.6,53.5,30.14,ESE,116,0.0,2.0,51,0.00,,CLR,0.00,VWS V14.01,2013-03-09 20:41:00,
2013-03-09 15:46:00,72.2,53.1,30.15,WSW,238,1.0,3.0,51,0.00,,CLR,0.00,VWS V14.01,2013-03-09 20:46:00,
2013-03-09 15:52:00,71.9,52.8,30.15,SSE,160,0.0,5.0,51,0.00,,CLR,0.00,VWS V14.01,2013-03-09 20:52:00,
2013-03-09 15:57:00,71.8,53.2,30.15,SW,214,1.0,5.0,52,0.00,,CLR,0.00,VWS V14.01,2013-03-09 20:57:00,
2013-03-09 16:02:00,71.6,52.5,30.15,ESE,120,0.0,5.0,51,0.00,,CLR,0.00,VWS V14.01,2013-03-09 21:02:00,
2013-03-09 16:07:00,71.6,53.1,30.14,ENE,71,0.0,3.0,52,0.00,,CLR,0.00,VWS V14.01,2013-03-09 21:07:00,
2013-03-09 16:12:00,72.0,52.9,30.14,WSW,243,0.0,7.0,51,0.00,,CLR,0.00,VWS V14.01,2013-03-09 21:12:00,
2013-03-09 16:17:00,72.9,53.7,30.15,WSW,242,1.0,7.0,51,0.00,,CLR,0.00,VWS V14.01,2013-03-09 21:17:00,
2013-03-09 16:23:00,73.2,53.5,30.15,NE,41,2.0,7.0,50,0.00,,CLR,0.00,VWS V14.01,2013-03-09 21:23:00,
2013-03-09 16:28:00,73.3,53.0,30.14,WNW,287,1.0,7.0,49,0.00,,CLR,0.00,VWS V14.01,2013-03-09 21:28:00,
2013-03-09 16:33:00,73.6,53.3,30.15,ESE,115,0.0,7.0,49,0.00,,CLR,0.00,VWS V14.01,2013-03-09 21:33:00,
2013-03-09 16:38:00,73.6,52.2,30.15,SSW,200,0.0,2.0,47,0.00,,CLR,0.00,VWS V14.01,2013-03-09 21:38:00,
2013-03-09 16:43:00,73.3,53.0,30.15,SSE,162,1.0,3.0,49,0.00,,CLR,0.00,VWS V14.01,2013-03-09 21:43:00,
2013-03-09 16:48:00,72.7,52.5,30.15,SE,142,1.0,3.0,49,0.00,,CLR,0.00,VWS V14.01,2013-03-09 21:48:00,
2013-03-09 16:53:00,72.0,52.4,30.16,SSW,200,1.0,4.0,50,0.00,,CLR,0.00,VWS V14.01,2013-03-09 21:53:00,
2013-03-09 16:59:00,71.6,52.0,30.15,North,4,2.0,4.0,50,0.00,,CLR,0.00,VWS V14.01,2013-03-09 21:59:00,
2013-03-09 17:04:00,71.3,51.7,30.16,West,274,0.0,4.0,50,0.00,,CLR,0.00,VWS V14.01,2013-03-09 22:04:00,
2013-03-09 17:09:00,71.3,53.3,30.16,SSW,194,0.0,1.0,53,0.00,,CLR,0.00,VWS V14.01,2013-03-09 22:09:00,
2013-03-09 17:14:00,71.2,52.7,30.16,SSW,205,0.0,1.0,52,0.00,,CLR,0.00,VWS V14.01,2013-03-09 22:14:00,
2013-03-09 17:19:00,70.0,52.1,30.17,SW,234,1.0,4.0,53,0.00,,CLR,0.00,VWS V14.01,2013-03-09 22:19:00,
2013-03-09 17:24:00,69.2,52.4,30.17,South,169,0.0,4.0,55,0.00,,CLR,0.00,VWS V14.01,2013-03-09 22:24:00,
2013-03-09 17:29:00,68.8,52.0,30.16,East,82,0.0,4.0,55,0.00,,CLR,0.00,VWS V14.01,2013-03-09 22:29:00,
2013-03-09 17:34:00,68.2,51.4,30.16,SSW,210,0.0,0.0,55,0.00,,CLR,0.00,VWS V14.01,2013-03-09 22:34:00,
2013-03-09 17:39:00,67.7,51.5,30.16,SSW,195,1.0,2.0,56,0.00,,CLR,0.00,VWS V14.01,2013-03-09 22:39:00,
2013-03-09 17:44:00,67.3,51.1,30.16,SW,215,0.0,2.0,56,0.00,,CLR,0.00,VWS V14.01,2013-03-09 22:44:00,
2013-03-09 17:50:00,66.8,50.1,30.16,WNW,290,0.0,2.0,55,0.00,,CLR,0.00,VWS V14.01,2013-03-09 22:50:00,
2013-03-09 17:55:00,66.4,50.2,30.17,WNW,295,1.0,3.0,56,0.00,,CLR,0.00,VWS V14.01,2013-03-09 22:55:00,
2013-03-09 18:00:00,66.0,49.9,30.17,ENE,78,0.0,3.0,56,0.00,,CLR,0.00,VWS V14.01,2013-03-09 23:00:00,
2013-03-09 18:05:00,65.7,51.0,30.17,WSW,245,0.0,2.0,59,0.00,,CLR,0.00,VWS V14.01,2013-03-09 23:05:00,
2013-03-09 18:10:00,65.4,50.7,30.17,SW,224,0.0,2.0,59,0.00,,CLR,0.00,VWS V14.01,2013-03-09 23:10:00,
2013-03-09 18:15:00,65.1,50.9,30.17,West,277,0.0,2.0,60,0.00,,CLR,0.00,VWS V14.01,2013-03-09 23:15:00,
2013-03-09 18:20:00,64.8,51.5,30.18,SW,228,0.0,2.0,62,0.00,,CLR,0.00,VWS V14.01,2013-03-09 23:20:00,
2013-03-09 18:25:00,64.4,51.1,30.18,WSW,254,0.0,3.0,62,0.00,,CLR,0.00,VWS V14.01,2013-03-09 23:25:00,
2013-03-09 18:30:00,64.0,51.2,30.18,WSW,255,0.0,3.0,63,0.00,,CLR,0.00,VWS V14.01,2013-03-09 23:30:00,
2013-03-09 18:36:00,63.5,51.1,30.18,WSW,255,0.0,0.0,64,0.00,,CLR,0.00,VWS V14.01,2013-03-09 23:36:00,
2013-03-09 18:41:00,63.0,51.1,30.17,WSW,255,0.0,0.0,65,0.00,,CLR,0.00,VWS V14.01,2013-03-09 23:41:00,
2013-03-09 18:46:00,62.4,50.9,30.18,WSW,255,0.0,0.0,66,0.00,,CLR,0.00,VWS V14.01,2013-03-09 23:46:00,
2013-03-09 18:51:00,61.8,50.7,30.18,WSW,255,0.0,0.0,67,0.00,,CLR,0.00,VWS V14.01,2013-03-09 23:51:00,
2013-03-09 18:56:00,61.3,50.7,30.18,WSW,255,0.0,0.0,68,0.00,,CLR,0.00,VWS V14.01,2013-03-09 23:56:00,
2013-03-09 19:01:00,60.8,50.6,30.18,WSW,255,0.0,0.0,69,0.00,,CLR,0.00,VWS V14.01,2013-03-10 00:01:00,
2013-03-09 19:06:00,60.4,50.6,30.18,WSW,255,0.0,0.0,70,0.00,,CLR,0.00,VWS V14.01,2013-03-10 00:06:00,
2013-03-09 19:11:00,60.1,50.7,30.18,WSW,255,0.0,0.0,71,0.00,,CLR,0.00,VWS V14.01,2013-03-10 00:11:00,
2013-03-09 19:16:00,59.8,50.4,30.18,WSW,255,0.0,0.0,71,0.00,,CLR,0.00,VWS V14.01,2013-03-10 00:16:00,
2013-03-09 19:21:00,59.5,50.5,30.18,WSW,255,0.0,0.0,72,0.00,,CLR,0.00,VWS V14.01,2013-03-10 00:21:00,
2013-03-09 19:27:00,59.5,50.8,30.18,WSW,255,0.0,0.0,73,0.00,,CLR,0.00,VWS V14.01,2013-03-10 00:27:00,
2013-03-09 19:32:00,59.5,51.2,30.18,WSW,255,0.0,0.0,74,0.00,,CLR,0.00,VWS V14.01,2013-03-10 00:32:00,
2013-03-09 19:37:00,59.4,50.8,30.18,WSW,255,0.0,0.0,73,0.00,,CLR,0.00,VWS V14.01,2013-03-10 00:37:00,
2013-03-09 19:42:00,59.2,50.9,30.18,WSW,255,0.0,0.0,74,0.00,,CLR,0.00,VWS V14.01,2013-03-10 00:42:00,
2013-03-09 19:47:00,58.9,51.0,30.18,WSW,255,0.0,0.0,75,0.00,,CLR,0.00,VWS V14.01,2013-03-10 00:47:00,
2013-03-09 19:52:00,58.7,50.8,30.18,WSW,255,0.0,0.0,75,0.00,,CLR,0.00,VWS V14.01,2013-03-10 00:52:00,
2013-03-09 19:57:00,58.4,50.9,30.18,WSW,255,0.0,0.0,76,0.00,,CLR,0.00,VWS V14.01,2013-03-10 00:57:00,
2013-03-09 20:02:00,58.2,51.0,30.18,WSW,255,0.0,0.0,77,0.00,,CLR,0.00,VWS V14.01,2013-03-10 01:02:00,
2013-03-09 20:07:00,58.0,50.8,30.18,WSW,255,0.0,0.0,77,0.00,,CLR,0.00,VWS V14.01,2013-03-10 01:07:00,
2013-03-09 20:12:00,57.9,50.7,30.18,SSE,158,0.0,0.0,77,0.00,,CLR,0.00,VWS V14.01,2013-03-10 01:12:00,
2013-03-09 20:18:00,57.8,51.0,30.18,NNE,21,0.0,2.0,78,0.00,,CLR,0.00,VWS V14.01,2013-03-10 01:18:00,
2013-03-09 20:23:00,57.7,50.9,30.19,NNE,22,0.0,2.0,78,0.00,,CLR,0.00,VWS V14.01,2013-03-10 01:23:00,
2013-03-09 20:28:00,57.5,51.0,30.19,NNE,22,0.0,2.0,79,0.00,,CLR,0.00,VWS V14.01,2013-03-10 01:28:00,
2013-03-09 20:33:00,57.2,51.1,30.19,NNE,22,0.0,2.0,80,0.00,,CLR,0.00,VWS V14.01,2013-03-10 01:33:00,
2013-03-09 20:38:00,56.9,50.8,30.19,NNE,22,0.0,0.0,80,0.00,,CLR,0.00,VWS V14.01,2013-03-10 01:38:00,
2013-03-09 20:43:00,56.6,50.8,30.19,NNE,22,0.0,0.0,81,0.00,,CLR,0.00,VWS V14.01,2013-03-10 01:43:00,
2013-03-09 20:48:00,56.4,51.0,30.19,NNE,22,0.0,0.0,82,0.00,,CLR,0.00,VWS V14.01,2013-03-10 01:48:00,
2013-03-09 20:53:00,56.2,50.8,30.19,NNE,21,0.0,0.0,82,0.00,,CLR,0.00,VWS V14.01,2013-03-10 01:53:00,
2013-03-09 20:58:00,55.9,50.8,30.19,NNE,21,0.0,0.0,83,0.00,,CLR,0.00,VWS V14.01,2013-03-10 01:58:00,
2013-03-09 21:03:00,55.8,51.0,30.19,NNE,22,0.0,0.0,84,0.00,,CLR,0.00,VWS V14.01,2013-03-10 02:03:00,
2013-03-09 21:09:00,55.6,50.8,30.19,NNE,21,0.0,0.0,84,0.00,,CLR,0.00,VWS V14.01,2013-03-10 02:09:00,
2013-03-09 21:14:00,55.4,51.0,30.19,NNE,21,0.0,0.0,85,0.00,,CLR,0.00,VWS V14.01,2013-03-10 02:14:00,
2013-03-09 21:19:00,55.3,51.2,30.19,NNE,22,0.0,0.0,86,0.00,,CLR,0.00,VWS V14.01,2013-03-10 02:19:00,
2013-03-09 21:24:00,55.2,51.1,30.19,NNE,22,0.0,0.0,86,0.00,,CLR,0.00,VWS V14.01,2013-03-10 02:24:00,
2013-03-09 21:29:00,55.2,51.1,30.19,NNE,21,0.0,0.0,86,0.00,,CLR,0.00,VWS V14.01,2013-03-10 02:29:00,
2013-03-09 21:34:00,55.1,51.3,30.18,NNE,22,0.0,0.0,87,0.00,,CLR,0.00,VWS V14.01,2013-03-10 02:34:00,
2013-03-09 21:39:00,55.3,51.8,30.18,NNE,20,0.0,0.0,88,0.00,,CLR,0.00,VWS V14.01,2013-03-10 02:39:00,
2013-03-09 21:44:00,55.5,52.0,30.18,NNE,20,0.0,0.0,88,0.00,,CLR,0.00,VWS V14.01,2013-03-10 02:44:00,
2013-03-09 21:50:00,55.7,52.2,30.19,NNE,20,0.0,0.0,88,0.00,,CLR,0.00,VWS V14.01,2013-03-10 02:50:00,
2013-03-09 21:55:00,56.0,52.5,30.19,North,352,0.0,0.0,88,0.00,,CLR,0.00,VWS V14.01,2013-03-10 02:55:00,
2013-03-09 22:00:00,56.3,52.8,30.19,North,353,0.0,0.0,88,0.00,,CLR,0.00,VWS V14.01,2013-03-10 03:00:00,
2013-03-09 22:05:00,56.3,52.8,30.19,North,353,0.0,0.0,88,0.00,,CLR,0.00,VWS V14.01,2013-03-10 03:05:00,
2013-03-09 22:10:00,56.4,52.9,30.19,North,352,0.0,0.0,88,0.00,,CLR,0.00,VWS V14.01,2013-03-10 03:10:00,
2013-03-09 22:15:00,56.3,52.8,30.19,North,353,0.0,0.0,88,0.00,,CLR,0.00,VWS V14.01,2013-03-10 03:15:00,
2013-03-09 22:20:00,56.2,52.7,30.19,North,353,0.0,0.0,88,0.00,,CLR,0.00,VWS V14.01,2013-03-10 03:20:00,
2013-03-09 22:25:00,56.2,53.0,30.19,NNW,339,0.0,0.0,89,0.00,,CLR,0.00,VWS V14.01,2013-03-10 03:25:00,
2013-03-09 22:31:00,56.2,53.0,30.19,NNW,338,0.0,0.0,89,0.00,,CLR,0.00,VWS V14.01,2013-03-10 03:31:00,
2013-03-09 22:36:00,56.1,52.9,30.19,NNW,338,0.0,0.0,89,0.00,,CLR,0.00,VWS V14.01,2013-03-10 03:36:00,
2013-03-09 22:41:00,56.1,53.2,30.19,NNW,348,0.0,0.0,90,0.00,,CLR,0.00,VWS V14.01,2013-03-10 03:41:00,
2013-03-09 22:46:00,56.2,53.0,30.19,NNW,348,0.0,0.0,89,0.00,,CLR,0.00,VWS V14.01,2013-03-10 03:46:00,
2013-03-09 22:51:00,56.1,53.2,30.19,NNW,348,0.0,0.0,90,0.00,,CLR,0.00,VWS V14.01,2013-03-10 03:51:00,
2013-03-09 22:56:00,56.1,53.2,30.18,NNW,348,0.0,0.0,90,0.00,,CLR,0.00,VWS V14.01,2013-03-10 03:56:00,
2013-03-09 23:01:00,56.0,53.1,30.18,North,349,0.0,0.0,90,0.00,,CLR,0.00,VWS V14.01,2013-03-10 04:01:00,
2013-03-09 23:06:00,55.9,53.0,30.19,NNW,348,0.0,0.0,90,0.00,,CLR,0.00,VWS V14.01,2013-03-10 04:06:00,
2013-03-09 23:12:00,55.9,53.0,30.19,North,349,0.0,0.0,90,0.00,,CLR,0.00,VWS V14.01,2013-03-10 04:12:00,
2013-03-09 23:17:00,55.7,52.8,30.19,NNW,348,0.0,0.0,90,0.00,,CLR,0.00,VWS V14.01,2013-03-10 04:17:00,
2013-03-09 23:22:00,55.5,52.6,30.19,NNW,348,0.0,0.0,90,0.00,,CLR,0.00,VWS V14.01,2013-03-10 04:22:00,
2013-03-09 23:27:00,55.4,52.8,30.18,NNW,348,0.0,0.0,91,0.00,,CLR,0.00,VWS V14.01,2013-03-10 04:27:00,
2013-03-09 23:32:00,55.3,52.7,30.18,NNW,348,0.0,0.0,91,0.00,,CLR,0.00,VWS V14.01,2013-03-10 04:32:00,
2013-03-09 23:37:00,55.4,53.1,30.18,NNW,348,0.0,0.0,92,0.00,,CLR,0.00,VWS V14.01,2013-03-10 04:37:00,
2013-03-09 23:42:00,55.4,53.1,30.18,NNW,348,0.0,0.0,92,0.00,,CLR,0.00,VWS V14.01,2013-03-10 04:42:00,
2013-03-09 23:48:00,55.5,53.2,30.17,NNW,348,0.0,0.0,92,0.00,,CLR,0.00,VWS V14.01,2013-03-10 04:48:00,
2013-03-09 23:53:00,55.6,53.3,30.17,NNW,348,0.0,0.0,92,0.00,,CLR,0.00,VWS V14.01,2013-03-10 04:53:00,
2013-03-09 23:58:00,55.6,53.3,30.17,North,349,0.0,0.0,92,0.00,,CLR,0.00,VWS V14.01,2013-03-10 04:58:00,